createdAt,value
2023-03-31T00:01:29.120Z,12.30
2023-03-31T00:04:06.335Z,12.30
2023-03-31T00:06:38.355Z,12.20
2023-03-31T00:09:19.000Z,12.20
2023-03-31T00:11:50.450Z,12.20
2023-03-31T00:14:40.562Z,12.20
2023-03-31T00:17:10.681Z,12.20
2023-03-31T00:19:40.252Z,12.20
2023-03-31T00:22:07.696Z,12.20
2023-03-31T00:24:35.852Z,12.20
2023-03-31T00:27:05.017Z,12.10
2023-03-31T00:29:33.712Z,12.10
2023-03-31T00:32:00.780Z,12.10
2023-03-31T00:34:28.689Z,12.00
2023-03-31T00:37:02.898Z,11.90
2023-03-31T00:39:35.146Z,11.80
2023-03-31T00:42:03.844Z,11.80
2023-03-31T00:44:34.337Z,11.80
2023-03-31T00:47:21.057Z,11.70
2023-03-31T00:49:54.951Z,11.60
2023-03-31T00:52:31.017Z,11.60
2023-03-31T00:55:10.932Z,11.50
2023-03-31T00:57:41.341Z,11.50
2023-03-31T01:00:15.517Z,11.40
2023-03-31T01:02:54.305Z,11.50
2023-03-31T01:05:25.957Z,11.40
2023-03-31T01:07:54.619Z,11.40
2023-03-31T01:10:22.635Z,11.30
2023-03-31T01:12:54.173Z,11.40
2023-03-31T01:15:22.610Z,11.40
2023-03-31T01:17:52.183Z,11.40
2023-03-31T01:20:36.183Z,11.40
2023-03-31T01:23:26.512Z,11.40
2023-03-31T01:25:56.389Z,11.40
2023-03-31T01:29:01.840Z,11.40
2023-03-31T01:31:48.131Z,11.30
2023-03-31T01:34:40.111Z,11.30
2023-03-31T01:37:16.387Z,11.30
2023-03-31T01:40:26.015Z,11.20
2023-03-31T01:43:14.278Z,11.20
2023-03-31T01:46:06.949Z,11.20
2023-03-31T01:48:37.066Z,11.20
2023-03-31T01:51:15.813Z,11.20
2023-03-31T01:53:57.443Z,11.20
2023-03-31T01:56:30.954Z,11.20
2023-03-31T01:59:35.526Z,11.20
2023-03-31T02:02:17.653Z,11.20
2023-03-31T02:04:59.224Z,11.20
2023-03-31T02:07:35.499Z,11.20
2023-03-31T02:10:07.283Z,11.30
2023-03-31T02:12:36.125Z,11.20
2023-03-31T02:15:09.420Z,11.10
2023-03-31T02:17:40.255Z,11.00
2023-03-31T02:20:12.723Z,11.00
2023-03-31T02:22:45.482Z,11.00
2023-03-31T02:25:15.694Z,11.00
2023-03-31T02:27:45.832Z,11.00
2023-03-31T02:30:14.749Z,11.00
2023-03-31T02:32:44.708Z,11.10
2023-03-31T02:35:17.795Z,11.10
2023-03-31T02:37:46.496Z,11.00
2023-03-31T02:40:23.277Z,11.10
2023-03-31T02:42:51.469Z,11.00
2023-03-31T02:45:44.381Z,11.10
2023-03-31T02:48:47.635Z,11.10
2023-03-31T02:51:36.917Z,11.10
2023-03-31T02:54:34.890Z,11.10
2023-03-31T02:57:27.199Z,11.10
2023-03-31T03:00:10.584Z,11.10
2023-03-31T03:03:02.698Z,11.10
2023-03-31T03:05:39.800Z,11.10
2023-03-31T03:08:55.519Z,11.20
2023-03-31T03:11:36.861Z,11.10
2023-03-31T03:14:28.703Z,11.10
2023-03-31T03:17:11.437Z,11.00
2023-03-31T03:19:38.481Z,11.10
2023-03-31T03:22:08.742Z,11.00
2023-03-31T03:24:36.403Z,11.00
2023-03-31T03:27:03.426Z,10.90
2023-03-31T03:29:30.872Z,10.90
2023-03-31T03:31:57.961Z,10.90
2023-03-31T03:34:26.990Z,10.90
2023-03-31T03:36:55.038Z,10.90
2023-03-31T03:39:23.896Z,11.00
2023-03-31T03:41:52.089Z,11.10
2023-03-31T03:44:22.068Z,11.20
2023-03-31T03:46:49.333Z,10.90
2023-03-31T03:49:27.541Z,10.50
2023-03-31T03:51:54.552Z,10.20
2023-03-31T03:54:24.906Z,10.00
2023-03-31T03:56:53.039Z,9.90
2023-03-31T03:59:20.052Z,9.90
2023-03-31T04:01:47.184Z,9.80
2023-03-31T04:04:14.525Z,9.80
2023-03-31T04:06:41.488Z,9.80
2023-03-31T04:09:08.433Z,9.80
2023-03-31T04:11:35.805Z,9.80
2023-03-31T04:14:03.956Z,9.80
2023-03-31T04:16:34.620Z,9.80
2023-03-31T04:19:04.607Z,9.80
2023-03-31T04:21:34.909Z,9.90
2023-03-31T04:24:05.485Z,9.90
2023-03-31T04:26:44.074Z,9.90
2023-03-31T04:29:13.317Z,10.10
2023-03-31T04:31:43.054Z,10.10
2023-03-31T04:34:14.649Z,10.20
2023-03-31T04:36:49.373Z,10.30
2023-03-31T04:39:26.976Z,10.40
2023-03-31T04:41:59.172Z,10.50
2023-03-31T04:44:30.048Z,10.50
2023-03-31T04:46:58.847Z,10.60
2023-03-31T04:49:25.852Z,10.60
2023-03-31T04:51:54.604Z,10.60
2023-03-31T04:54:21.612Z,10.60
2023-03-31T04:56:48.740Z,10.70
2023-03-31T04:59:17.032Z,10.60
2023-03-31T05:01:45.345Z,10.70
2023-03-31T05:04:13.978Z,10.70
2023-03-31T05:06:41.630Z,10.80
2023-03-31T05:09:09.902Z,10.80
2023-03-31T05:11:38.368Z,10.80
2023-03-31T05:14:05.802Z,10.80
2023-03-31T05:16:34.692Z,10.80
2023-03-31T05:19:04.276Z,10.80
2023-03-31T05:21:32.499Z,10.80
2023-03-31T05:24:00.974Z,10.80
2023-03-31T05:26:28.696Z,10.90
2023-03-31T05:28:57.592Z,10.90
2023-03-31T05:31:24.633Z,10.90
2023-03-31T05:33:51.930Z,10.90
2023-03-31T05:36:19.120Z,10.90
2023-03-31T05:38:47.747Z,10.90
2023-03-31T05:41:17.112Z,11.00
2023-03-31T05:43:44.173Z,11.00
2023-03-31T05:46:11.752Z,11.00
2023-03-31T05:48:41.387Z,11.00
2023-03-31T05:51:08.508Z,11.10
2023-03-31T05:53:36.147Z,11.10
2023-03-31T05:56:06.947Z,11.10
2023-03-31T05:58:39.109Z,11.10
2023-03-31T06:01:20.576Z,11.10
2023-03-31T06:03:50.050Z,11.20
2023-03-31T06:06:18.608Z,11.20
2023-03-31T06:08:47.546Z,11.20
2023-03-31T06:11:17.327Z,11.20
2023-03-31T06:13:47.964Z,11.20
2023-03-31T06:16:17.181Z,11.20
2023-03-31T06:18:45.074Z,11.30
2023-03-31T06:21:14.672Z,11.20
2023-03-31T06:23:45.500Z,11.30
2023-03-31T06:26:15.406Z,11.40
2023-03-31T06:28:42.866Z,11.40
2023-03-31T06:31:13.168Z,11.40
2023-03-31T06:33:41.899Z,11.40
2023-03-31T06:36:10.718Z,11.50
2023-03-31T06:38:40.175Z,11.50
2023-03-31T06:41:09.577Z,11.50
2023-03-31T06:43:37.635Z,11.50
2023-03-31T06:46:06.247Z,11.50
2023-03-31T06:48:33.804Z,11.60
2023-03-31T06:51:05.423Z,11.70
2023-03-31T06:53:33.626Z,11.80
2023-03-31T06:56:02.859Z,11.80
2023-03-31T06:58:31.575Z,11.80
2023-03-31T07:01:02.112Z,11.70
2023-03-31T07:03:30.904Z,11.80
2023-03-31T07:05:58.121Z,11.80
2023-03-31T07:08:26.411Z,11.80
2023-03-31T07:11:00.418Z,11.80
2023-03-31T07:13:28.327Z,11.80
2023-03-31T07:15:58.404Z,11.80
2023-03-31T07:18:34.281Z,11.90
2023-03-31T07:21:05.762Z,11.80
2023-03-31T07:23:35.676Z,11.80
2023-03-31T07:26:03.851Z,11.90
2023-03-31T07:28:31.165Z,11.90
2023-03-31T07:30:58.591Z,11.90
2023-03-31T07:33:26.164Z,12.00
2023-03-31T07:36:03.963Z,11.90
2023-03-31T07:38:40.428Z,11.90
2023-03-31T07:41:12.144Z,11.90
2023-03-31T07:43:39.870Z,11.80
2023-03-31T07:46:13.529Z,11.80
2023-03-31T07:48:42.165Z,11.70
2023-03-31T07:51:10.361Z,11.70
2023-03-31T07:53:38.616Z,11.70
2023-03-31T07:56:05.911Z,11.70
2023-03-31T07:58:33.212Z,11.70
2023-03-31T08:01:01.108Z,11.60
2023-03-31T08:03:28.348Z,11.60
2023-03-31T08:05:55.397Z,11.70
2023-03-31T08:08:22.755Z,11.60
2023-03-31T08:10:51.040Z,11.70
2023-03-31T08:13:18.102Z,11.70
2023-03-31T08:15:45.099Z,11.80
2023-03-31T08:18:12.223Z,11.80
2023-03-31T08:20:39.487Z,11.80
2023-03-31T08:23:11.606Z,11.80
2023-03-31T08:25:39.684Z,11.80
2023-03-31T08:28:10.840Z,11.80
2023-03-31T08:30:39.043Z,11.90
2023-03-31T08:33:12.453Z,11.90
2023-03-31T08:35:41.975Z,11.90
2023-03-31T08:38:09.182Z,11.80
2023-03-31T08:40:45.113Z,11.80
2023-03-31T08:43:23.073Z,11.80
2023-03-31T08:45:50.695Z,11.80
2023-03-31T08:48:38.770Z,11.60
2023-03-31T08:51:14.644Z,11.70
2023-03-31T08:53:56.295Z,11.70
2023-03-31T08:56:24.477Z,11.70
2023-03-31T08:58:52.351Z,11.70
2023-03-31T09:01:52.165Z,11.70
2023-03-31T09:04:53.043Z,11.70
2023-03-31T09:07:25.113Z,11.70
2023-03-31T09:09:55.177Z,11.60
2023-03-31T09:12:35.111Z,11.60
2023-03-31T09:15:10.980Z,11.50
2023-03-31T09:17:45.919Z,11.60
2023-03-31T09:20:19.915Z,11.70
2023-03-31T09:22:55.981Z,11.70
2023-03-31T09:25:34.606Z,11.80
2023-03-31T09:28:09.223Z,11.90
2023-03-31T09:30:38.435Z,11.90
2023-03-31T09:33:18.418Z,11.90
2023-03-31T09:35:46.887Z,12.00
2023-03-31T09:38:15.904Z,11.90
2023-03-31T09:40:43.431Z,11.80
2023-03-31T09:43:24.539Z,11.90
2023-03-31T09:46:08.550Z,11.90
2023-03-31T09:48:42.414Z,11.90
2023-03-31T09:51:18.300Z,11.80
2023-03-31T09:53:58.552Z,11.90
2023-03-31T09:56:43.681Z,11.90
2023-03-31T09:59:22.628Z,11.90
2023-03-31T10:01:57.142Z,11.80
2023-03-31T10:04:26.389Z,11.80
2023-03-31T10:06:55.927Z,11.90
2023-03-31T10:09:28.570Z,11.90
2023-03-31T10:11:56.820Z,11.90
2023-03-31T10:14:28.174Z,11.80
2023-03-31T10:16:57.825Z,11.90
2023-03-31T10:19:31.855Z,11.90
2023-03-31T10:22:01.190Z,11.90
2023-03-31T10:24:42.945Z,11.90
2023-03-31T10:27:22.895Z,12.00
2023-03-31T10:29:59.493Z,12.00
2023-03-31T10:32:33.778Z,12.00
2023-03-31T10:35:22.095Z,12.00
2023-03-31T10:37:55.990Z,12.10
2023-03-31T10:40:26.743Z,12.20
2023-03-31T10:43:11.363Z,12.20
2023-03-31T10:45:51.248Z,12.20
2023-03-31T10:48:32.758Z,12.20
2023-03-31T10:51:21.362Z,12.30
2023-03-31T10:53:50.462Z,12.30
2023-03-31T10:56:42.022Z,12.40
2023-03-31T10:59:41.667Z,12.50
2023-03-31T11:02:28.266Z,12.30
2023-03-31T11:05:13.213Z,12.20
2023-03-31T11:07:59.182Z,12.20
2023-03-31T11:10:45.394Z,12.10
2023-03-31T11:13:43.194Z,12.10
2023-03-31T11:16:50.041Z,12.10
2023-03-31T11:19:19.987Z,12.00
2023-03-31T11:22:12.131Z,12.00
2023-03-31T11:25:00.399Z,12.00
2023-03-31T11:27:54.692Z,12.10
2023-03-31T11:30:43.167Z,12.10
2023-03-31T11:33:28.354Z,12.10
2023-03-31T11:36:07.407Z,12.20
2023-03-31T11:39:02.282Z,12.30
2023-03-31T11:41:39.193Z,12.50
2023-03-31T11:44:11.711Z,12.50
2023-03-31T11:47:02.809Z,12.40
2023-03-31T11:49:39.228Z,12.40
2023-03-31T11:52:18.966Z,12.30
2023-03-31T11:55:18.153Z,12.30
2023-03-31T11:58:16.551Z,12.30
2023-03-31T12:01:18.606Z,12.40
2023-03-31T12:04:05.040Z,12.30
2023-03-31T12:06:41.010Z,12.20
2023-03-31T12:09:27.377Z,12.10
2023-03-31T12:12:00.985Z,12.10
2023-03-31T12:14:42.978Z,12.00
2023-03-31T12:17:16.244Z,11.90
2023-03-31T12:20:00.587Z,11.80
2023-03-31T12:22:36.344Z,11.70
2023-03-31T12:25:16.926Z,11.60
2023-03-31T12:27:49.822Z,11.50
2023-03-31T12:30:42.339Z,11.40
2023-03-31T12:37:18.954Z,11.40
2023-03-31T12:40:17.156Z,11.70
2023-03-31T12:44:03.180Z,11.80
2023-03-31T12:47:15.147Z,11.90
2023-03-31T12:50:20.055Z,12.00
2023-03-31T12:53:20.263Z,12.00
2023-03-31T12:55:52.263Z,12.10
2023-03-31T12:58:23.148Z,12.20
2023-03-31T13:01:11.828Z,12.40
2023-03-31T13:04:02.208Z,12.40
2023-03-31T13:06:29.208Z,12.40
2023-03-31T13:08:57.234Z,12.40
2023-03-31T13:11:48.210Z,12.30
2023-03-31T13:14:18.231Z,12.30
2023-03-31T13:16:46.308Z,12.30
2023-03-31T13:19:34.864Z,12.40
2023-03-31T13:22:06.258Z,12.40
2023-03-31T13:24:36.284Z,12.30
2023-03-31T13:27:33.693Z,12.20
2023-03-31T13:30:01.044Z,12.10
2023-03-31T13:32:29.023Z,12.10
2023-03-31T13:35:29.938Z,12.00
2023-03-31T13:38:31.440Z,11.90
2023-03-31T13:41:03.661Z,11.70
2023-03-31T13:44:06.402Z,11.70
2023-03-31T13:51:07.691Z,11.70
2023-03-31T13:53:59.923Z,11.60
2023-03-31T14:01:37.879Z,11.60
2023-03-31T14:04:40.730Z,11.50
2023-03-31T14:07:23.174Z,11.40
2023-03-31T14:09:54.113Z,11.40
2023-03-31T14:12:35.846Z,11.40
2023-03-31T14:15:06.692Z,11.50
2023-03-31T14:17:40.976Z,11.50
2023-03-31T14:20:12.613Z,11.60
2023-03-31T14:22:47.114Z,11.60
2023-03-31T14:25:56.392Z,11.70
2023-03-31T14:28:48.106Z,11.80
2023-03-31T14:31:21.481Z,11.80
2023-03-31T14:34:05.000Z,11.80
2023-03-31T14:36:58.153Z,11.70
2023-03-31T14:39:31.622Z,11.80
2023-03-31T14:42:22.600Z,11.80
2023-03-31T14:44:56.480Z,11.90
2023-03-31T14:47:33.873Z,12.00
2023-03-31T14:50:18.795Z,11.90
2023-03-31T14:52:52.313Z,11.90
2023-03-31T14:55:58.593Z,11.80
2023-03-31T14:58:36.269Z,11.80
2023-03-31T15:01:07.989Z,11.80
2023-03-31T15:03:41.924Z,11.70
2023-03-31T15:06:15.793Z,11.70
2023-03-31T15:08:43.336Z,11.70
2023-03-31T15:11:22.261Z,11.70
2023-03-31T15:14:03.582Z,11.60
2023-03-31T15:16:43.333Z,11.70
2023-03-31T15:19:33.591Z,11.80
2023-03-31T15:22:19.275Z,11.70
2023-03-31T15:24:48.059Z,11.70
2023-03-31T15:27:35.870Z,11.70
2023-03-31T15:30:06.981Z,11.70
2023-03-31T15:32:39.510Z,11.60
2023-03-31T15:35:32.474Z,11.60
2023-03-31T15:38:01.266Z,11.80
2023-03-31T15:40:31.975Z,11.70
2023-03-31T15:43:20.212Z,11.70
2023-03-31T15:45:56.620Z,11.60
2023-03-31T15:48:35.799Z,11.60
2023-03-31T15:51:13.988Z,11.60
2023-03-31T15:53:47.312Z,11.50
2023-03-31T15:56:27.195Z,11.50
2023-03-31T15:58:59.912Z,11.60
2023-03-31T16:01:33.055Z,11.60
2023-03-31T16:04:08.955Z,11.50
2023-03-31T16:06:52.630Z,11.50
2023-03-31T16:09:28.051Z,11.50
2023-03-31T16:12:02.597Z,11.50
2023-03-31T16:15:02.663Z,11.50
2023-03-31T16:17:52.933Z,11.50
2023-03-31T16:20:37.758Z,11.50
2023-03-31T16:23:16.104Z,11.50
2023-03-31T16:25:49.582Z,11.40
2023-03-31T16:28:25.942Z,11.40
2023-03-31T16:30:55.358Z,11.40
2023-03-31T16:33:25.497Z,11.40
2023-03-31T16:35:59.106Z,11.30
2023-03-31T16:38:29.451Z,11.10
2023-03-31T16:40:59.199Z,11.10
2023-03-31T16:43:32.572Z,11.00
2023-03-31T16:46:04.443Z,11.00
2023-03-31T16:48:35.418Z,11.00
2023-03-31T16:51:04.686Z,11.00
2023-03-31T16:53:36.162Z,11.00
2023-03-31T16:56:09.800Z,10.90
2023-03-31T16:58:38.643Z,10.80
2023-03-31T17:01:10.482Z,10.80
2023-03-31T17:03:42.011Z,10.70
2023-03-31T17:06:13.354Z,10.70
2023-03-31T17:08:41.064Z,10.70
2023-03-31T17:11:12.826Z,10.60
2023-03-31T17:13:41.998Z,10.60
2023-03-31T17:16:19.060Z,10.50
2023-03-31T17:18:53.256Z,10.60
2023-03-31T17:21:24.374Z,10.50
2023-03-31T17:23:53.557Z,10.50
2023-03-31T17:26:22.526Z,10.50
2023-03-31T17:28:49.675Z,10.40
2023-03-31T17:31:19.584Z,10.40
2023-03-31T17:33:47.688Z,10.30
2023-03-31T17:36:16.806Z,10.30
2023-03-31T17:38:44.598Z,10.40
2023-03-31T17:41:13.250Z,10.40
2023-03-31T17:43:43.967Z,10.20
2023-03-31T17:46:12.845Z,10.20
2023-03-31T17:48:41.623Z,10.20
2023-03-31T17:51:15.153Z,10.20
2023-03-31T17:53:45.172Z,10.20
2023-03-31T17:56:16.078Z,10.20
2023-03-31T17:58:43.354Z,10.20
2023-03-31T18:01:12.014Z,10.20
2023-03-31T18:03:39.434Z,10.20
2023-03-31T18:06:11.579Z,10.20
2023-03-31T18:08:40.399Z,10.20
2023-03-31T18:11:09.267Z,10.20
2023-03-31T18:13:37.393Z,10.20
2023-03-31T18:16:05.872Z,10.20
2023-03-31T18:18:33.594Z,10.20
2023-03-31T18:21:06.253Z,10.20
2023-03-31T18:23:40.586Z,10.20
2023-03-31T18:26:13.220Z,10.20
2023-03-31T18:29:12.650Z,10.20
2023-03-31T18:32:07.415Z,10.10
2023-03-31T18:34:36.792Z,10.10
2023-03-31T18:37:05.491Z,10.00
2023-03-31T18:39:33.174Z,10.10
2023-03-31T18:42:01.591Z,10.10
2023-03-31T18:44:28.634Z,10.10
2023-03-31T18:46:55.679Z,10.10
2023-03-31T18:49:27.245Z,10.10
2023-03-31T18:51:54.191Z,10.20
2023-03-31T18:54:22.929Z,10.20
2023-03-31T18:56:50.221Z,10.30
2023-03-31T18:59:17.814Z,10.40
2023-03-31T19:01:45.036Z,10.30
2023-03-31T19:04:12.381Z,10.40
2023-03-31T19:06:40.766Z,10.40
2023-03-31T19:09:08.815Z,10.40
2023-03-31T19:11:37.796Z,10.40
2023-03-31T19:14:07.703Z,10.40
2023-03-31T19:16:41.675Z,10.40
2023-03-31T19:19:09.126Z,10.40
2023-03-31T19:21:37.408Z,10.30
2023-03-31T19:24:06.534Z,10.30
2023-03-31T19:26:34.139Z,10.30
2023-03-31T19:29:03.655Z,10.20
2023-03-31T19:31:34.138Z,10.20
2023-03-31T19:34:09.062Z,10.10
2023-03-31T19:36:37.388Z,10.20
2023-03-31T19:39:09.171Z,10.10
2023-03-31T19:41:36.759Z,10.10
2023-03-31T19:44:05.467Z,10.20
2023-03-31T19:46:32.637Z,10.20
2023-03-31T19:49:00.052Z,10.20
2023-03-31T19:51:32.568Z,10.10
2023-03-31T19:53:59.881Z,10.10
2023-03-31T19:56:28.450Z,10.10
2023-03-31T19:58:56.293Z,10.20
2023-03-31T20:01:34.838Z,10.20
2023-03-31T20:04:05.195Z,10.20
2023-03-31T20:06:35.586Z,10.10
2023-03-31T20:09:08.968Z,10.20
2023-03-31T20:11:37.976Z,10.20
2023-03-31T20:14:11.590Z,10.20
2023-03-31T20:17:01.224Z,10.10
2023-03-31T20:20:40.909Z,10.10
2023-03-31T20:23:34.450Z,10.10
2023-03-31T20:26:07.147Z,10.10
2023-03-31T20:28:39.268Z,10.10
2023-03-31T20:31:21.763Z,10.00
2023-03-31T20:33:49.355Z,10.00
2023-03-31T20:40:47.079Z,10.00
2023-03-31T20:43:14.200Z,10.00
2023-03-31T20:45:41.365Z,9.90
2023-03-31T20:48:08.860Z,10.00
2023-03-31T20:50:39.408Z,10.00
2023-03-31T20:53:07.236Z,10.00
2023-03-31T20:55:35.340Z,10.00
2023-03-31T20:58:05.634Z,10.00
2023-03-31T21:00:41.164Z,10.00
2023-03-31T21:03:10.290Z,10.00
2023-03-31T21:05:46.586Z,10.00
2023-03-31T21:08:13.892Z,10.00
2023-03-31T21:10:48.482Z,10.00
2023-03-31T21:13:16.775Z,10.00
2023-03-31T21:15:50.801Z,10.00
2023-03-31T21:18:18.157Z,10.00
2023-03-31T21:20:56.583Z,10.00
2023-03-31T21:23:27.403Z,10.00
2023-03-31T21:25:59.719Z,10.00
2023-03-31T21:28:33.716Z,10.00
2023-03-31T21:31:16.139Z,10.00
2023-03-31T21:34:03.554Z,10.00
2023-03-31T21:36:35.857Z,10.00
2023-03-31T21:39:05.508Z,9.90
2023-03-31T21:41:34.849Z,10.00
2023-03-31T21:44:03.209Z,9.90
2023-03-31T21:46:34.174Z,10.00
2023-03-31T21:49:02.668Z,10.00
2023-03-31T21:51:29.936Z,10.00
2023-03-31T21:53:58.426Z,10.00
2023-03-31T21:56:31.642Z,9.90
2023-03-31T21:59:01.321Z,9.90
2023-03-31T22:01:29.904Z,9.90
2023-03-31T22:03:57.289Z,10.00
2023-03-31T22:06:24.289Z,10.00
2023-03-31T22:08:51.573Z,10.00
2023-03-31T22:11:18.934Z,10.00
2023-03-31T22:13:46.395Z,10.00
2023-03-31T22:16:17.468Z,9.90
2023-03-31T22:18:45.839Z,10.00
2023-03-31T22:21:21.300Z,10.00
2023-03-31T22:23:51.802Z,10.00
2023-03-31T22:26:19.179Z,9.90
2023-03-31T22:28:46.238Z,9.90
2023-03-31T22:31:13.278Z,9.90
2023-03-31T22:33:41.549Z,9.90
2023-03-31T22:36:09.814Z,9.90
2023-03-31T22:38:39.985Z,9.90
2023-03-31T22:41:08.345Z,9.90
2023-03-31T22:43:36.548Z,9.90
2023-03-31T22:46:06.197Z,9.90
2023-03-31T22:48:33.977Z,9.90
2023-03-31T22:51:15.380Z,9.90
2023-03-31T22:53:42.390Z,9.80
2023-03-31T22:56:12.188Z,9.80
2023-03-31T22:58:39.508Z,9.90
2023-03-31T23:01:10.127Z,9.90
2023-03-31T23:03:37.726Z,9.80
2023-03-31T23:06:10.561Z,9.80
2023-03-31T23:08:39.502Z,9.80
2023-03-31T23:11:09.253Z,9.80
2023-03-31T23:13:39.030Z,9.80
2023-03-31T23:16:10.159Z,9.80
2023-03-31T23:18:44.513Z,9.90
2023-03-31T23:21:21.687Z,9.80
2023-03-31T23:26:48.171Z,9.70
2023-03-31T23:29:17.321Z,9.70
2023-03-31T23:31:48.448Z,9.70
2023-03-31T23:34:15.906Z,9.70
2023-03-31T23:36:44.039Z,9.70
2023-03-31T23:39:11.175Z,9.80
2023-03-31T23:41:48.070Z,9.80
2023-03-31T23:44:15.537Z,9.70
2023-03-31T23:46:44.938Z,9.70
2023-03-31T23:49:12.298Z,9.70
2023-03-31T23:51:39.297Z,9.70
2023-03-31T23:54:06.275Z,9.80
2023-03-31T23:56:34.523Z,9.80
2023-03-31T23:59:03.296Z,9.80
